Washington, District of Columbia
Traffic Map
Current Weather Conditions
Washington, District of Columbia
Scattered Clouds
Scattered Clouds
41°
Feels Like: 36°
Wind Chill: 36° Ceiling: Unl
Heat Index: 41° Visibility: 10mi
Dew Point: 31° Wind: 7mph
Humidity: 67% Direction: 70° (ENE)
Pressure: 30.55in Gusts: 0mph
Raw Report DataKDCA 180552Z 07006KT 10SM FEW040 SCT250 05/M01 A3055 RMK AO2 SLP345 T00501006 10094 20050 58015
Traffic Incident Summary
Active as of:
Severity:
Category:
InformationThere was an issue retrieving the traffic information for this location. Please try a different location or try again shortly.
Advertisements
At Last! Intellicast now available for iPhone and Android